Terminal Aerodrome Forecast
Issued by NWS

Home | Current Version | Previous Version | Text Only | Print | Product List | Glossary On
Versions: 1 2 3 4 5 6 7 8 9 10 11 12 13 14 15 16 17 18 19 20 21 22 23 24 25 26 27 28 29 30 31
232
FTUS43 KDVN 272055 AAA
TAFCID
TAF AMD
KCID 272055Z 2721/2818 17012G20KT P6SM VCTS SCT030CB BKN050
     FM280400 18006KT 5SM -SHRA BR VCTS OVC035CB
     FM280900 21005KT 6SM BR VCSH BKN015
     FM281600 23010KT P6SM BKN025=

USA.gov is the U.S. government's official web portal to all federal, state and local government web resources and services.